createdAt,value
2022-12-31T00:00:55.125Z,2.88
2022-12-31T00:10:58.073Z,2.77
2022-12-31T00:21:06.221Z,4.65
2022-12-31T00:31:13.585Z,3.67
2022-12-31T00:41:19.459Z,2.88
2022-12-31T00:51:27.486Z,3.67
2022-12-31T01:01:33.830Z,2.38
2022-12-31T01:11:37.351Z,1.33
2022-12-31T01:21:43.516Z,1.40
2022-12-31T01:31:46.620Z,2.30
2022-12-31T01:41:50.978Z,0.88
2022-12-31T01:51:59.027Z,0.87
2022-12-31T02:02:03.718Z,1.08
2022-12-31T02:22:22.830Z,3.17
2022-12-31T02:32:33.056Z,3.58
2022-12-31T02:42:35.993Z,3.20
2022-12-31T02:52:52.439Z,3.83
2022-12-31T03:02:56.807Z,6.22
2022-12-31T03:13:01.184Z,2.97
2022-12-31T03:23:07.156Z,3.43
2022-12-31T03:33:11.606Z,2.30
2022-12-31T03:43:14.969Z,3.78
2022-12-31T03:53:19.509Z,4.82
2022-12-31T04:03:22.528Z,2.60
2022-12-31T04:13:26.849Z,3.17
2022-12-31T04:23:30.037Z,1.83
2022-12-31T04:33:35.005Z,4.38
2022-12-31T04:43:37.967Z,4.50
2022-12-31T04:53:42.450Z,2.35
2022-12-31T05:03:45.417Z,2.22
2022-12-31T05:13:49.779Z,3.70
2022-12-31T05:23:52.946Z,1.95
2022-12-31T05:33:57.607Z,2.55
2022-12-31T05:54:05.141Z,4.18
2022-12-31T06:04:08.108Z,4.05
2022-12-31T06:14:13.259Z,3.88
2022-12-31T06:24:16.234Z,3.38
2022-12-31T06:34:20.789Z,2.15
2022-12-31T06:54:27.871Z,3.28
2022-12-31T07:05:02.016Z,2.55
2022-12-31T07:15:15.809Z,3.30
2022-12-31T07:25:20.551Z,2.87
2022-12-31T07:35:35.473Z,5.00
2022-12-31T07:45:47.740Z,4.72
2022-12-31T07:55:56.466Z,2.80
2022-12-31T08:06:12.111Z,5.53
2022-12-31T08:16:17.001Z,3.50
2022-12-31T08:26:28.896Z,3.35
2022-12-31T08:36:43.149Z,4.60
2022-12-31T08:46:57.254Z,5.13
2022-12-31T08:57:10.959Z,2.47
2022-12-31T09:07:17.355Z,4.03
2022-12-31T09:17:43.097Z,3.70
2022-12-31T09:27:54.708Z,3.33
2022-12-31T09:38:11.293Z,11.05
2022-12-31T09:48:42.442Z,7.55
2022-12-31T09:58:56.832Z,6.80
2022-12-31T10:09:15.901Z,7.18
2022-12-31T10:19:45.898Z,4.55
2022-12-31T10:29:57.833Z,5.82
2022-12-31T10:40:21.645Z,8.55
2022-12-31T10:50:56.138Z,3.90
2022-12-31T11:01:06.517Z,6.22
2022-12-31T11:11:28.480Z,8.60
2022-12-31T11:21:48.614Z,7.85
2022-12-31T11:32:05.487Z,6.55
2022-12-31T11:42:21.683Z,9.85
2022-12-31T11:52:47.807Z,5.97
2022-12-31T12:02:59.049Z,5.32
2022-12-31T12:13:02.103Z,6.35
2022-12-31T12:23:16.140Z,8.93
2022-12-31T12:33:21.053Z,7.03
2022-12-31T12:43:29.037Z,7.50
2022-12-31T12:53:44.929Z,7.70
2022-12-31T13:04:36.055Z,6.55
2022-12-31T13:14:49.150Z,7.20
2022-12-31T13:25:02.392Z,8.27
2022-12-31T13:35:23.343Z,9.18
2022-12-31T13:45:31.748Z,9.57
2022-12-31T13:55:41.326Z,6.32
2022-12-31T14:05:51.218Z,7.32
2022-12-31T14:16:08.322Z,9.02
2022-12-31T14:26:19.780Z,10.18
2022-12-31T14:36:39.635Z,15.02
2022-12-31T14:46:58.261Z,8.63
2022-12-31T14:57:11.173Z,12.02
2022-12-31T15:07:23.588Z,11.30
2022-12-31T15:17:38.075Z,8.63
2022-12-31T15:37:47.327Z,11.57
2022-12-31T15:47:57.461Z,6.85
2022-12-31T15:58:06.143Z,7.03
2022-12-31T16:08:19.503Z,5.60
2022-12-31T16:18:23.863Z,10.50
2022-12-31T16:28:30.934Z,8.30
2022-12-31T16:38:36.828Z,10.68
2022-12-31T16:48:40.670Z,8.82
2022-12-31T16:58:46.403Z,8.32
2022-12-31T17:09:05.847Z,13.65
2022-12-31T17:19:32.092Z,10.98
2022-12-31T17:29:35.579Z,14.20
2022-12-31T17:39:49.092Z,14.23
2022-12-31T17:49:54.743Z,12.80
2022-12-31T17:59:59.133Z,11.13
2022-12-31T18:10:02.023Z,11.48
2022-12-31T18:20:07.133Z,12.27
2022-12-31T18:30:11.490Z,16.58
2022-12-31T18:40:15.989Z,11.35
2022-12-31T18:50:19.156Z,21.35
2022-12-31T19:00:23.685Z,11.57
2022-12-31T19:20:32.185Z,26.58
2022-12-31T19:30:36.549Z,16.23
2022-12-31T19:40:41.399Z,16.23
2022-12-31T19:50:46.546Z,13.10
2022-12-31T20:00:56.835Z,14.80
2022-12-31T20:21:17.956Z,11.50
2022-12-31T20:31:22.500Z,13.88
2022-12-31T20:51:32.396Z,13.93
2022-12-31T21:02:11.617Z,15.15
2022-12-31T21:12:17.251Z,17.15
2022-12-31T21:22:23.081Z,15.63
2022-12-31T21:32:26.091Z,13.32
2022-12-31T21:42:30.510Z,14.05
2022-12-31T21:52:35.232Z,19.08
2022-12-31T22:02:59.252Z,19.23
2022-12-31T22:13:02.948Z,11.85
2022-12-31T22:23:09.349Z,11.18
2022-12-31T22:33:12.266Z,21.33
2022-12-31T22:43:16.696Z,16.40
2022-12-31T23:03:23.973Z,21.83
2022-12-31T23:23:55.745Z,28.65
2022-12-31T23:33:58.995Z,30.75
2022-12-31T23:44:03.345Z,23.02
2022-12-31T23:54:06.378Z,17.00
